sensor_id;sensor_type;location;lat;lon;timestamp;temperature;humidity
1179;DHT22;578;48.408;10.004;2023-01-09T00:01:44;5.70;99.90
1179;DHT22;578;48.408;10.004;2023-01-09T00:04:11;5.70;99.90
1179;DHT22;578;48.408;10.004;2023-01-09T00:06:38;5.80;99.90
1179;DHT22;578;48.408;10.004;2023-01-09T00:09:07;5.70;99.90
1179;DHT22;578;48.408;10.004;2023-01-09T00:11:35;5.80;99.90
1179;DHT22;578;48.408;10.004;2023-01-09T00:14:02;5.70;99.90
1179;DHT22;578;48.408;10.004;2023-01-09T00:16:29;5.70;99.90
1179;DHT22;578;48.408;10.004;2023-01-09T00:18:57;5.70;99.90
1179;DHT22;578;48.408;10.004;2023-01-09T00:21:25;5.70;99.90
1179;DHT22;578;48.408;10.004;2023-01-09T00:23:52;5.70;99.90
1179;DHT22;578;48.408;10.004;2023-01-09T00:26:19;5.70;99.90
1179;DHT22;578;48.408;10.004;2023-01-09T00:28:48;5.70;99.90
1179;DHT22;578;48.408;10.004;2023-01-09T00:31:16;5.70;99.90
1179;DHT22;578;48.408;10.004;2023-01-09T00:33:45;5.70;99.90
1179;DHT22;578;48.408;10.004;2023-01-09T00:36:14;5.70;99.90
1179;DHT22;578;48.408;10.004;2023-01-09T00:38:41;5.80;99.90
1179;DHT22;578;48.408;10.004;2023-01-09T00:41:11;5.80;99.90
1179;DHT22;578;48.408;10.004;2023-01-09T00:43:42;5.90;99.90
1179;DHT22;578;48.408;10.004;2023-01-09T00:46:10;5.90;99.90
1179;DHT22;578;48.408;10.004;2023-01-09T00:48:40;5.90;99.90
1179;DHT22;578;48.408;10.004;2023-01-09T00:51:07;5.90;99.90
1179;DHT22;578;48.408;10.004;2023-01-09T00:53:37;5.90;99.90
1179;DHT22;578;48.408;10.004;2023-01-09T00:56:08;6.00;99.90
1179;DHT22;578;48.408;10.004;2023-01-09T00:58:36;6.00;99.90
1179;DHT22;578;48.408;10.004;2023-01-09T01:01:03;6.00;99.90
1179;DHT22;578;48.408;10.004;2023-01-09T01:03:30;6.00;99.90
1179;DHT22;578;48.408;10.004;2023-01-09T01:05:56;6.10;99.90
1179;DHT22;578;48.408;10.004;2023-01-09T01:08:43;6.00;99.90
1179;DHT22;578;48.408;10.004;2023-01-09T01:11:10;6.10;99.90
1179;DHT22;578;48.408;10.004;2023-01-09T01:13:38;6.00;99.90
1179;DHT22;578;48.408;10.004;2023-01-09T01:16:07;6.00;99.90
1179;DHT22;578;48.408;10.004;2023-01-09T01:18:34;6.00;99.90
1179;DHT22;578;48.408;10.004;2023-01-09T01:21:05;5.90;99.90
1179;DHT22;578;48.408;10.004;2023-01-09T01:23:31;5.90;99.90
1179;DHT22;578;48.408;10.004;2023-01-09T01:26:04;5.90;99.90
1179;DHT22;578;48.408;10.004;2023-01-09T01:28:31;5.90;99.90
1179;DHT22;578;48.408;10.004;2023-01-09T01:30:57;5.90;99.90
1179;DHT22;578;48.408;10.004;2023-01-09T01:33:24;6.00;99.90
1179;DHT22;578;48.408;10.004;2023-01-09T01:35:59;6.00;99.90
1179;DHT22;578;48.408;10.004;2023-01-09T01:38:27;6.00;99.90
1179;DHT22;578;48.408;10.004;2023-01-09T01:40:54;6.00;99.90
1179;DHT22;578;48.408;10.004;2023-01-09T01:43:22;5.90;99.90
1179;DHT22;578;48.408;10.004;2023-01-09T01:45:49;6.00;99.90
1179;DHT22;578;48.408;10.004;2023-01-09T01:48:19;6.00;99.90
1179;DHT22;578;48.408;10.004;2023-01-09T01:50:49;6.00;99.90
1179;DHT22;578;48.408;10.004;2023-01-09T01:53:20;6.10;99.90
1179;DHT22;578;48.408;10.004;2023-01-09T01:56:01;6.10;99.90
1179;DHT22;578;48.408;10.004;2023-01-09T01:58:30;6.10;99.90
1179;DHT22;578;48.408;10.004;2023-01-09T02:00:59;6.00;99.90
1179;DHT22;578;48.408;10.004;2023-01-09T02:03:27;6.00;99.90
1179;DHT22;578;48.408;10.004;2023-01-09T02:05:54;5.90;99.90
1179;DHT22;578;48.408;10.004;2023-01-09T02:08:21;6.00;99.90
1179;DHT22;578;48.408;10.004;2023-01-09T02:10:48;6.00;99.90
1179;DHT22;578;48.408;10.004;2023-01-09T02:13:16;6.00;99.90
1179;DHT22;578;48.408;10.004;2023-01-09T02:15:53;6.00;99.90
1179;DHT22;578;48.408;10.004;2023-01-09T02:18:33;6.00;99.90
1179;DHT22;578;48.408;10.004;2023-01-09T02:21:08;5.90;99.90
1179;DHT22;578;48.408;10.004;2023-01-09T02:24:01;5.90;99.90
1179;DHT22;578;48.408;10.004;2023-01-09T02:27:12;5.90;99.90
1179;DHT22;578;48.408;10.004;2023-01-09T02:33:06;5.80;99.90
1179;DHT22;578;48.408;10.004;2023-01-09T02:35:51;5.90;99.90
1179;DHT22;578;48.408;10.004;2023-01-09T02:38:26;5.90;99.90
1179;DHT22;578;48.408;10.004;2023-01-09T02:40:59;6.00;99.90
1179;DHT22;578;48.408;10.004;2023-01-09T02:43:27;6.10;99.90
1179;DHT22;578;48.408;10.004;2023-01-09T02:45:54;6.10;99.90
1179;DHT22;578;48.408;10.004;2023-01-09T02:48:22;6.10;99.90
1179;DHT22;578;48.408;10.004;2023-01-09T02:50:58;6.10;99.90
1179;DHT22;578;48.408;10.004;2023-01-09T02:54:04;6.20;99.90
1179;DHT22;578;48.408;10.004;2023-01-09T02:56:46;6.20;99.90
1179;DHT22;578;48.408;10.004;2023-01-09T02:59:22;6.10;99.90
1179;DHT22;578;48.408;10.004;2023-01-09T03:02:07;6.00;99.90
1179;DHT22;578;48.408;10.004;2023-01-09T03:04:44;5.90;99.90
1179;DHT22;578;48.408;10.004;2023-01-09T03:09:41;5.90;99.90
1179;DHT22;578;48.408;10.004;2023-01-09T03:12:10;6.00;99.90
1179;DHT22;578;48.408;10.004;2023-01-09T03:14:45;6.10;99.90
1179;DHT22;578;48.408;10.004;2023-01-09T03:17:16;6.20;99.90
1179;DHT22;578;48.408;10.004;2023-01-09T03:19:46;6.20;99.90
1179;DHT22;578;48.408;10.004;2023-01-09T03:22:14;6.30;99.90
1179;DHT22;578;48.408;10.004;2023-01-09T03:24:41;6.30;99.90
1179;DHT22;578;48.408;10.004;2023-01-09T03:27:08;6.40;99.90
1179;DHT22;578;48.408;10.004;2023-01-09T03:29:35;6.40;99.90
1179;DHT22;578;48.408;10.004;2023-01-09T03:32:02;6.40;99.90
1179;DHT22;578;48.408;10.004;2023-01-09T03:34:29;6.40;99.90
1179;DHT22;578;48.408;10.004;2023-01-09T03:36:57;6.50;99.90
1179;DHT22;578;48.408;10.004;2023-01-09T03:39:23;6.50;99.90
1179;DHT22;578;48.408;10.004;2023-01-09T03:41:50;6.50;99.90
1179;DHT22;578;48.408;10.004;2023-01-09T03:44:17;6.50;99.90
1179;DHT22;578;48.408;10.004;2023-01-09T03:46:43;6.50;99.90
1179;DHT22;578;48.408;10.004;2023-01-09T03:49:10;6.40;99.90
1179;DHT22;578;48.408;10.004;2023-01-09T03:51:38;6.40;99.90
1179;DHT22;578;48.408;10.004;2023-01-09T03:54:06;6.50;99.90
1179;DHT22;578;48.408;10.004;2023-01-09T03:56:33;6.50;99.90
1179;DHT22;578;48.408;10.004;2023-01-09T03:58:59;6.50;99.90
1179;DHT22;578;48.408;10.004;2023-01-09T04:01:26;6.50;99.90
1179;DHT22;578;48.408;10.004;2023-01-09T04:03:53;6.60;99.90
1179;DHT22;578;48.408;10.004;2023-01-09T04:06:19;6.60;99.90
1179;DHT22;578;48.408;10.004;2023-01-09T04:08:46;6.60;99.90
1179;DHT22;578;48.408;10.004;2023-01-09T04:11:14;6.50;99.90
1179;DHT22;578;48.408;10.004;2023-01-09T04:13:42;6.60;99.90
1179;DHT22;578;48.408;10.004;2023-01-09T04:16:09;6.60;99.90
1179;DHT22;578;48.408;10.004;2023-01-09T04:18:36;6.60;99.90
1179;DHT22;578;48.408;10.004;2023-01-09T04:21:02;6.60;99.90
1179;DHT22;578;48.408;10.004;2023-01-09T04:23:29;6.60;99.90
1179;DHT22;578;48.408;10.004;2023-01-09T04:25:56;6.60;99.90
1179;DHT22;578;48.408;10.004;2023-01-09T04:28:24;6.60;99.90
1179;DHT22;578;48.408;10.004;2023-01-09T04:30:50;6.70;99.90
1179;DHT22;578;48.408;10.004;2023-01-09T04:33:17;6.70;99.90
1179;DHT22;578;48.408;10.004;2023-01-09T04:35:44;6.70;99.90
1179;DHT22;578;48.408;10.004;2023-01-09T04:38:11;6.70;99.90
1179;DHT22;578;48.408;10.004;2023-01-09T04:40:38;6.70;99.90
1179;DHT22;578;48.408;10.004;2023-01-09T04:43:05;6.60;99.90
1179;DHT22;578;48.408;10.004;2023-01-09T04:45:33;6.60;99.90
1179;DHT22;578;48.408;10.004;2023-01-09T04:47:59;6.50;99.90
1179;DHT22;578;48.408;10.004;2023-01-09T04:50:26;6.50;99.90
1179;DHT22;578;48.408;10.004;2023-01-09T04:52:53;6.40;99.90
1179;DHT22;578;48.408;10.004;2023-01-09T04:55:21;6.30;99.90
1179;DHT22;578;48.408;10.004;2023-01-09T04:57:48;6.30;99.90
1179;DHT22;578;48.408;10.004;2023-01-09T05:00:15;6.20;99.90
1179;DHT22;578;48.408;10.004;2023-01-09T05:02:43;6.20;99.90
1179;DHT22;578;48.408;10.004;2023-01-09T05:05:10;6.20;99.90
1179;DHT22;578;48.408;10.004;2023-01-09T05:07:37;6.20;99.90
1179;DHT22;578;48.408;10.004;2023-01-09T05:10:05;6.10;99.90
1179;DHT22;578;48.408;10.004;2023-01-09T05:12:31;6.10;99.90
1179;DHT22;578;48.408;10.004;2023-01-09T05:14:59;6.20;99.90
1179;DHT22;578;48.408;10.004;2023-01-09T05:17:25;6.20;99.90
1179;DHT22;578;48.408;10.004;2023-01-09T05:19:53;6.20;99.90
1179;DHT22;578;48.408;10.004;2023-01-09T05:22:20;6.10;99.90
1179;DHT22;578;48.408;10.004;2023-01-09T05:24:46;6.00;99.90
1179;DHT22;578;48.408;10.004;2023-01-09T05:27:13;6.00;99.90
1179;DHT22;578;48.408;10.004;2023-01-09T05:29:40;6.00;99.90
1179;DHT22;578;48.408;10.004;2023-01-09T05:32:07;6.00;99.90
1179;DHT22;578;48.408;10.004;2023-01-09T05:34:33;5.90;99.90
1179;DHT22;578;48.408;10.004;2023-01-09T05:37:01;5.90;99.90
1179;DHT22;578;48.408;10.004;2023-01-09T05:39:28;5.90;99.90
1179;DHT22;578;48.408;10.004;2023-01-09T05:41:54;5.90;99.90
1179;DHT22;578;48.408;10.004;2023-01-09T05:44:21;5.90;99.90
1179;DHT22;578;48.408;10.004;2023-01-09T05:46:48;5.80;99.90
1179;DHT22;578;48.408;10.004;2023-01-09T05:49:15;5.70;99.90
1179;DHT22;578;48.408;10.004;2023-01-09T05:51:41;5.70;99.90
1179;DHT22;578;48.408;10.004;2023-01-09T05:54:09;5.70;99.90
1179;DHT22;578;48.408;10.004;2023-01-09T05:56:36;5.60;99.90
1179;DHT22;578;48.408;10.004;2023-01-09T05:59:03;5.50;99.90
1179;DHT22;578;48.408;10.004;2023-01-09T06:01:29;5.50;99.90
1179;DHT22;578;48.408;10.004;2023-01-09T06:03:56;5.40;99.90
1179;DHT22;578;48.408;10.004;2023-01-09T06:06:22;5.30;99.90
1179;DHT22;578;48.408;10.004;2023-01-09T06:08:50;5.30;99.90
1179;DHT22;578;48.408;10.004;2023-01-09T06:11:18;5.30;99.90
1179;DHT22;578;48.408;10.004;2023-01-09T06:13:44;5.20;99.90
1179;DHT22;578;48.408;10.004;2023-01-09T06:16:11;5.20;99.90
1179;DHT22;578;48.408;10.004;2023-01-09T06:18:38;5.10;99.90
1179;DHT22;578;48.408;10.004;2023-01-09T06:21:05;5.10;99.90
1179;DHT22;578;48.408;10.004;2023-01-09T06:23:32;5.10;99.90
1179;DHT22;578;48.408;10.004;2023-01-09T06:25:58;5.10;99.90
1179;DHT22;578;48.408;10.004;2023-01-09T06:28:26;5.10;99.90
1179;DHT22;578;48.408;10.004;2023-01-09T06:30:53;5.10;99.90
1179;DHT22;578;48.408;10.004;2023-01-09T06:33:20;5.00;99.90
1179;DHT22;578;48.408;10.004;2023-01-09T06:35:47;5.00;99.90
1179;DHT22;578;48.408;10.004;2023-01-09T06:38:13;4.90;99.90
1179;DHT22;578;48.408;10.004;2023-01-09T06:40:40;4.90;99.90
1179;DHT22;578;48.408;10.004;2023-01-09T06:43:07;5.00;99.90
1179;DHT22;578;48.408;10.004;2023-01-09T06:45:35;5.00;99.90
1179;DHT22;578;48.408;10.004;2023-01-09T06:48:01;4.80;99.90
1179;DHT22;578;48.408;10.004;2023-01-09T06:50:28;4.90;99.90
1179;DHT22;578;48.408;10.004;2023-01-09T06:52:55;4.90;99.90
1179;DHT22;578;48.408;10.004;2023-01-09T06:55:21;4.90;99.90
1179;DHT22;578;48.408;10.004;2023-01-09T06:57:48;4.90;99.90
1179;DHT22;578;48.408;10.004;2023-01-09T07:00:16;4.80;99.90
1179;DHT22;578;48.408;10.004;2023-01-09T07:02:44;4.90;99.90
1179;DHT22;578;48.408;10.004;2023-01-09T07:05:10;4.80;99.90
1179;DHT22;578;48.408;10.004;2023-01-09T07:07:38;4.80;99.90
1179;DHT22;578;48.408;10.004;2023-01-09T07:10:05;4.80;99.90
1179;DHT22;578;48.408;10.004;2023-01-09T07:12:32;4.80;99.90
1179;DHT22;578;48.408;10.004;2023-01-09T07:14:59;4.70;99.90
1179;DHT22;578;48.408;10.004;2023-01-09T07:17:25;4.70;99.90
1179;DHT22;578;48.408;10.004;2023-01-09T07:19:53;4.60;99.90
1179;DHT22;578;48.408;10.004;2023-01-09T07:22:20;4.50;99.90
1179;DHT22;578;48.408;10.004;2023-01-09T07:24:47;4.60;99.90
1179;DHT22;578;48.408;10.004;2023-01-09T07:27:13;4.50;99.90
1179;DHT22;578;48.408;10.004;2023-01-09T07:29:40;4.40;99.90
1179;DHT22;578;48.408;10.004;2023-01-09T07:32:07;4.40;99.90
1179;DHT22;578;48.408;10.004;2023-01-09T07:34:33;4.50;99.90
1179;DHT22;578;48.408;10.004;2023-01-09T07:37:01;4.50;99.90
1179;DHT22;578;48.408;10.004;2023-01-09T07:39:28;4.40;99.90
1179;DHT22;578;48.408;10.004;2023-01-09T07:41:55;4.40;99.90
1179;DHT22;578;48.408;10.004;2023-01-09T07:44:21;4.50;99.90
1179;DHT22;578;48.408;10.004;2023-01-09T07:46:48;4.50;99.90
1179;DHT22;578;48.408;10.004;2023-01-09T07:49:15;4.40;99.90
1179;DHT22;578;48.408;10.004;2023-01-09T07:51:41;4.40;99.90
1179;DHT22;578;48.408;10.004;2023-01-09T07:54:11;4.40;99.90
1179;DHT22;578;48.408;10.004;2023-01-09T07:56:38;4.50;99.90
1179;DHT22;578;48.408;10.004;2023-01-09T07:59:04;4.50;99.90
1179;DHT22;578;48.408;10.004;2023-01-09T08:01:31;4.60;99.90
1179;DHT22;578;48.408;10.004;2023-01-09T08:03:58;4.60;99.90
1179;DHT22;578;48.408;10.004;2023-01-09T08:06:25;4.70;99.90
1179;DHT22;578;48.408;10.004;2023-01-09T08:08:51;4.70;99.90
1179;DHT22;578;48.408;10.004;2023-01-09T08:11:19;4.70;99.90
1179;DHT22;578;48.408;10.004;2023-01-09T08:13:46;4.60;99.90
1179;DHT22;578;48.408;10.004;2023-01-09T08:16:12;4.60;99.90
1179;DHT22;578;48.408;10.004;2023-01-09T08:18:39;4.70;99.90
1179;DHT22;578;48.408;10.004;2023-01-09T08:21:06;4.60;99.90
1179;DHT22;578;48.408;10.004;2023-01-09T08:23:33;4.70;99.90
1179;DHT22;578;48.408;10.004;2023-01-09T08:25:59;4.80;99.90
1179;DHT22;578;48.408;10.004;2023-01-09T08:28:27;4.90;99.90
1179;DHT22;578;48.408;10.004;2023-01-09T08:30:54;4.90;99.90
1179;DHT22;578;48.408;10.004;2023-01-09T08:33:21;5.00;99.90
1179;DHT22;578;48.408;10.004;2023-01-09T08:35:48;5.00;99.90
1179;DHT22;578;48.408;10.004;2023-01-09T08:38:14;5.00;99.90
1179;DHT22;578;48.408;10.004;2023-01-09T08:40:41;5.10;99.90
1179;DHT22;578;48.408;10.004;2023-01-09T08:43:08;5.00;99.90
1179;DHT22;578;48.408;10.004;2023-01-09T08:45:53;5.10;99.90
1179;DHT22;578;48.408;10.004;2023-01-09T08:48:34;5.20;99.90
1179;DHT22;578;48.408;10.004;2023-01-09T08:51:01;5.20;99.90
1179;DHT22;578;48.408;10.004;2023-01-09T08:53:27;5.20;99.90
1179;DHT22;578;48.408;10.004;2023-01-09T08:55:55;5.30;99.90
1179;DHT22;578;48.408;10.004;2023-01-09T08:58:22;5.40;99.90
1179;DHT22;578;48.408;10.004;2023-01-09T09:00:49;5.40;99.90
1179;DHT22;578;48.408;10.004;2023-01-09T09:03:17;5.50;99.90
1179;DHT22;578;48.408;10.004;2023-01-09T09:05:43;5.50;99.90
1179;DHT22;578;48.408;10.004;2023-01-09T09:08:10;5.50;99.90
1179;DHT22;578;48.408;10.004;2023-01-09T09:10:37;5.60;99.90
1179;DHT22;578;48.408;10.004;2023-01-09T09:13:03;5.60;99.90
1179;DHT22;578;48.408;10.004;2023-01-09T09:15:30;5.60;99.90
1179;DHT22;578;48.408;10.004;2023-01-09T09:18:00;5.60;99.90
1179;DHT22;578;48.408;10.004;2023-01-09T09:20:30;5.60;99.90
1179;DHT22;578;48.408;10.004;2023-01-09T09:22:58;5.60;99.90
1179;DHT22;578;48.408;10.004;2023-01-09T09:25:24;5.70;99.90
1179;DHT22;578;48.408;10.004;2023-01-09T09:27:51;5.50;99.90
1179;DHT22;578;48.408;10.004;2023-01-09T09:30:20;5.50;99.90
1179;DHT22;578;48.408;10.004;2023-01-09T09:32:47;5.50;99.90
1179;DHT22;578;48.408;10.004;2023-01-09T09:35:15;5.50;99.90
1179;DHT22;578;48.408;10.004;2023-01-09T09:37:51;5.50;99.90
1179;DHT22;578;48.408;10.004;2023-01-09T09:40:26;5.50;99.90
1179;DHT22;578;48.408;10.004;2023-01-09T09:43:20;5.50;99.90
1179;DHT22;578;48.408;10.004;2023-01-09T09:46:12;5.50;99.90
1179;DHT22;578;48.408;10.004;2023-01-09T09:48:44;5.60;99.90
1179;DHT22;578;48.408;10.004;2023-01-09T09:51:50;5.60;99.90
1179;DHT22;578;48.408;10.004;2023-01-09T09:54:25;5.80;99.90
1179;DHT22;578;48.408;10.004;2023-01-09T09:56:55;5.80;99.90
1179;DHT22;578;48.408;10.004;2023-01-09T09:59:25;6.00;99.90
1179;DHT22;578;48.408;10.004;2023-01-09T10:01:56;6.10;99.90
1179;DHT22;578;48.408;10.004;2023-01-09T10:04:26;6.00;99.90
1179;DHT22;578;48.408;10.004;2023-01-09T10:06:59;5.90;99.90
1179;DHT22;578;48.408;10.004;2023-01-09T10:09:40;5.90;99.90
1179;DHT22;578;48.408;10.004;2023-01-09T10:12:16;6.00;99.90
1179;DHT22;578;48.408;10.004;2023-01-09T10:14:46;6.10;99.90
1179;DHT22;578;48.408;10.004;2023-01-09T10:17:38;6.10;99.90
1179;DHT22;578;48.408;10.004;2023-01-09T10:20:34;6.10;99.90
1179;DHT22;578;48.408;10.004;2023-01-09T10:23:13;6.20;99.90
1179;DHT22;578;48.408;10.004;2023-01-09T10:25:45;6.30;99.90
1179;DHT22;578;48.408;10.004;2023-01-09T10:28:25;6.40;99.90
1179;DHT22;578;48.408;10.004;2023-01-09T10:30:59;6.50;99.90
1179;DHT22;578;48.408;10.004;2023-01-09T10:33:41;6.60;99.90
1179;DHT22;578;48.408;10.004;2023-01-09T10:36:25;6.70;99.90
1179;DHT22;578;48.408;10.004;2023-01-09T10:38:57;6.60;99.90
1179;DHT22;578;48.408;10.004;2023-01-09T10:41:32;6.80;99.90
1179;DHT22;578;48.408;10.004;2023-01-09T10:44:02;6.90;99.90
1179;DHT22;578;48.408;10.004;2023-01-09T10:46:37;6.80;99.90
1179;DHT22;578;48.408;10.004;2023-01-09T10:49:11;6.70;99.90
1179;DHT22;578;48.408;10.004;2023-01-09T10:51:45;6.70;99.90
1179;DHT22;578;48.408;10.004;2023-01-09T10:54:14;6.60;99.90
1179;DHT22;578;48.408;10.004;2023-01-09T10:56:48;6.70;99.90
1179;DHT22;578;48.408;10.004;2023-01-09T10:59:17;6.80;99.90
1179;DHT22;578;48.408;10.004;2023-01-09T11:01:44;6.70;99.90
1179;DHT22;578;48.408;10.004;2023-01-09T11:04:19;6.70;99.90
1179;DHT22;578;48.408;10.004;2023-01-09T11:06:51;6.70;99.90
1179;DHT22;578;48.408;10.004;2023-01-09T11:09:18;7.00;99.90
1179;DHT22;578;48.408;10.004;2023-01-09T11:11:46;6.90;99.90
1179;DHT22;578;48.408;10.004;2023-01-09T11:14:14;6.90;99.90
1179;DHT22;578;48.408;10.004;2023-01-09T11:16:53;6.90;99.90
1179;DHT22;578;48.408;10.004;2023-01-09T11:19:20;6.90;99.90
1179;DHT22;578;48.408;10.004;2023-01-09T11:21:47;7.00;99.90
1179;DHT22;578;48.408;10.004;2023-01-09T11:24:25;6.90;99.90
1179;DHT22;578;48.408;10.004;2023-01-09T11:27:20;7.00;99.90
1179;DHT22;578;48.408;10.004;2023-01-09T11:30:16;7.00;99.90
1179;DHT22;578;48.408;10.004;2023-01-09T11:32:45;6.90;99.90
1179;DHT22;578;48.408;10.004;2023-01-09T11:35:21;7.00;99.90
1179;DHT22;578;48.408;10.004;2023-01-09T11:37:57;7.20;99.90
1179;DHT22;578;48.408;10.004;2023-01-09T11:40:26;7.30;99.90
1179;DHT22;578;48.408;10.004;2023-01-09T11:43:15;7.50;99.90
1179;DHT22;578;48.408;10.004;2023-01-09T11:45:46;7.40;99.90
1179;DHT22;578;48.408;10.004;2023-01-09T11:48:18;7.40;99.90
1179;DHT22;578;48.408;10.004;2023-01-09T11:50:55;7.50;99.90
1179;DHT22;578;48.408;10.004;2023-01-09T11:53:22;7.50;99.90
1179;DHT22;578;48.408;10.004;2023-01-09T11:55:55;7.70;99.90
1179;DHT22;578;48.408;10.004;2023-01-09T11:58:26;7.60;99.90
1179;DHT22;578;48.408;10.004;2023-01-09T12:00:59;7.50;99.90
1179;DHT22;578;48.408;10.004;2023-01-09T12:03:48;7.50;99.90
1179;DHT22;578;48.408;10.004;2023-01-09T12:06:23;7.50;99.90
1179;DHT22;578;48.408;10.004;2023-01-09T12:08:55;7.60;99.90
1179;DHT22;578;48.408;10.004;2023-01-09T12:11:29;7.50;99.90
1179;DHT22;578;48.408;10.004;2023-01-09T12:14:11;7.40;99.90
1179;DHT22;578;48.408;10.004;2023-01-09T12:16:52;7.20;99.90
1179;DHT22;578;48.408;10.004;2023-01-09T12:19:49;7.30;99.90
1179;DHT22;578;48.408;10.004;2023-01-09T12:22:27;7.30;99.90
1179;DHT22;578;48.408;10.004;2023-01-09T12:25:05;7.30;99.90
1179;DHT22;578;48.408;10.004;2023-01-09T12:27:49;7.20;99.90
1179;DHT22;578;48.408;10.004;2023-01-09T12:30:31;7.20;99.90
1179;DHT22;578;48.408;10.004;2023-01-09T12:33:09;7.20;99.90
1179;DHT22;578;48.408;10.004;2023-01-09T12:35:42;7.20;99.90
1179;DHT22;578;48.408;10.004;2023-01-09T12:38:29;7.20;99.90
1179;DHT22;578;48.408;10.004;2023-01-09T12:44:06;7.00;99.90
1179;DHT22;578;48.408;10.004;2023-01-09T12:46:43;6.90;99.90
1179;DHT22;578;48.408;10.004;2023-01-09T12:49:23;6.80;99.90
1179;DHT22;578;48.408;10.004;2023-01-09T12:51:55;7.00;99.90
1179;DHT22;578;48.408;10.004;2023-01-09T12:54:32;7.20;99.90
1179;DHT22;578;48.408;10.004;2023-01-09T12:57:03;7.40;99.90
1179;DHT22;578;48.408;10.004;2023-01-09T12:59:34;7.50;99.90
1179;DHT22;578;48.408;10.004;2023-01-09T13:02:14;7.40;99.90
1179;DHT22;578;48.408;10.004;2023-01-09T13:04:45;7.50;99.90
1179;DHT22;578;48.408;10.004;2023-01-09T13:07:17;7.50;99.90
1179;DHT22;578;48.408;10.004;2023-01-09T13:09:49;7.50;99.90
1179;DHT22;578;48.408;10.004;2023-01-09T13:12:18;7.30;99.90
1179;DHT22;578;48.408;10.004;2023-01-09T13:14:51;7.30;99.90
1179;DHT22;578;48.408;10.004;2023-01-09T13:17:25;7.50;99.90
1179;DHT22;578;48.408;10.004;2023-01-09T13:19:53;7.40;99.90
1179;DHT22;578;48.408;10.004;2023-01-09T13:22:22;7.40;99.90
1179;DHT22;578;48.408;10.004;2023-01-09T13:25:05;7.40;99.90
1179;DHT22;578;48.408;10.004;2023-01-09T13:27:39;7.30;99.90
1179;DHT22;578;48.408;10.004;2023-01-09T13:30:18;7.30;99.90
1179;DHT22;578;48.408;10.004;2023-01-09T13:32:55;7.20;99.90
1179;DHT22;578;48.408;10.004;2023-01-09T13:35:26;7.00;99.90
1179;DHT22;578;48.408;10.004;2023-01-09T13:37:53;6.90;99.90
1179;DHT22;578;48.408;10.004;2023-01-09T13:40:27;6.90;99.90
1179;DHT22;578;48.408;10.004;2023-01-09T13:42:59;6.90;99.90
1179;DHT22;578;48.408;10.004;2023-01-09T13:45:29;6.80;99.90
1179;DHT22;578;48.408;10.004;2023-01-09T13:48:25;6.70;99.90
1179;DHT22;578;48.408;10.004;2023-01-09T13:53:58;6.30;99.90
1179;DHT22;578;48.408;10.004;2023-01-09T13:56:25;6.20;99.90
1179;DHT22;578;48.408;10.004;2023-01-09T13:59:01;6.10;99.90
1179;DHT22;578;48.408;10.004;2023-01-09T14:01:44;6.00;99.90
1179;DHT22;578;48.408;10.004;2023-01-09T14:04:42;5.70;99.90
1179;DHT22;578;48.408;10.004;2023-01-09T14:07:20;5.70;99.90
1179;DHT22;578;48.408;10.004;2023-01-09T14:09:51;5.80;99.90
1179;DHT22;578;48.408;10.004;2023-01-09T14:12:20;6.00;99.90
1179;DHT22;578;48.408;10.004;2023-01-09T14:14:49;5.90;99.90
1179;DHT22;578;48.408;10.004;2023-01-09T14:17:24;5.90;99.90
1179;DHT22;578;48.408;10.004;2023-01-09T14:19:56;5.80;99.90
1179;DHT22;578;48.408;10.004;2023-01-09T14:22:25;5.70;99.90
1179;DHT22;578;48.408;10.004;2023-01-09T14:24:53;5.60;99.90
1179;DHT22;578;48.408;10.004;2023-01-09T14:30:33;5.60;99.90
1179;DHT22;578;48.408;10.004;2023-01-09T14:33:01;5.50;99.90
1179;DHT22;578;48.408;10.004;2023-01-09T14:35:37;5.40;99.90
1179;DHT22;578;48.408;10.004;2023-01-09T14:38:24;5.50;99.90
1179;DHT22;578;48.408;10.004;2023-01-09T14:40:55;5.60;99.90
1179;DHT22;578;48.408;10.004;2023-01-09T14:43:32;5.70;99.90
1179;DHT22;578;48.408;10.004;2023-01-09T14:46:10;5.60;99.90
1179;DHT22;578;48.408;10.004;2023-01-09T14:48:47;5.70;99.90
1179;DHT22;578;48.408;10.004;2023-01-09T14:51:19;5.60;99.90
1179;DHT22;578;48.408;10.004;2023-01-09T14:53:48;5.60;99.90
1179;DHT22;578;48.408;10.004;2023-01-09T14:56:28;5.60;99.90
1179;DHT22;578;48.408;10.004;2023-01-09T14:59:05;5.50;99.90
1179;DHT22;578;48.408;10.004;2023-01-09T15:01:33;5.50;99.90
1179;DHT22;578;48.408;10.004;2023-01-09T15:04:02;5.40;99.90
1179;DHT22;578;48.408;10.004;2023-01-09T15:06:34;5.40;99.90
1179;DHT22;578;48.408;10.004;2023-01-09T15:09:04;5.60;99.90
1179;DHT22;578;48.408;10.004;2023-01-09T15:11:33;5.50;99.90
1179;DHT22;578;48.408;10.004;2023-01-09T15:14:03;5.40;99.90
1179;DHT22;578;48.408;10.004;2023-01-09T15:16:31;5.30;99.90
1179;DHT22;578;48.408;10.004;2023-01-09T15:19:00;5.20;99.90
1179;DHT22;578;48.408;10.004;2023-01-09T15:21:29;5.20;99.90
1179;DHT22;578;48.408;10.004;2023-01-09T15:24:10;5.10;99.90
1179;DHT22;578;48.408;10.004;2023-01-09T15:26:37;5.00;99.90
1179;DHT22;578;48.408;10.004;2023-01-09T15:29:13;4.90;99.90
1179;DHT22;578;48.408;10.004;2023-01-09T15:31:42;4.90;99.90
1179;DHT22;578;48.408;10.004;2023-01-09T15:34:16;4.90;99.90
1179;DHT22;578;48.408;10.004;2023-01-09T15:36:43;4.90;99.90
1179;DHT22;578;48.408;10.004;2023-01-09T15:39:16;4.80;99.90
1179;DHT22;578;48.408;10.004;2023-01-09T15:41:45;4.80;99.90
1179;DHT22;578;48.408;10.004;2023-01-09T15:44:30;4.80;99.90
1179;DHT22;578;48.408;10.004;2023-01-09T15:47:02;4.80;99.90
1179;DHT22;578;48.408;10.004;2023-01-09T15:49:30;4.80;99.90
1179;DHT22;578;48.408;10.004;2023-01-09T15:51:58;4.80;99.90
1179;DHT22;578;48.408;10.004;2023-01-09T15:54:29;4.90;99.90
1179;DHT22;578;48.408;10.004;2023-01-09T15:57:26;4.90;99.90
1179;DHT22;578;48.408;10.004;2023-01-09T15:59:56;5.00;99.90
1179;DHT22;578;48.408;10.004;2023-01-09T16:02:43;5.00;99.90
1179;DHT22;578;48.408;10.004;2023-01-09T16:05:28;5.10;99.90
1179;DHT22;578;48.408;10.004;2023-01-09T16:07:55;5.10;99.90
1179;DHT22;578;48.408;10.004;2023-01-09T16:10:28;5.10;99.90
1179;DHT22;578;48.408;10.004;2023-01-09T16:12:56;5.10;99.90
1179;DHT22;578;48.408;10.004;2023-01-09T16:15:23;5.10;99.90
1179;DHT22;578;48.408;10.004;2023-01-09T16:18:06;5.00;99.90
1179;DHT22;578;48.408;10.004;2023-01-09T16:20:37;4.90;99.90
1179;DHT22;578;48.408;10.004;2023-01-09T16:23:20;4.90;99.90
1179;DHT22;578;48.408;10.004;2023-01-09T16:25:48;5.00;99.90
1179;DHT22;578;48.408;10.004;2023-01-09T16:28:18;5.00;99.90
1179;DHT22;578;48.408;10.004;2023-01-09T16:30:51;5.00;99.90
1179;DHT22;578;48.408;10.004;2023-01-09T16:33:19;5.00;99.90
1179;DHT22;578;48.408;10.004;2023-01-09T16:35:47;4.90;99.90
1179;DHT22;578;48.408;10.004;2023-01-09T16:38:14;4.90;99.90
1179;DHT22;578;48.408;10.004;2023-01-09T16:40:59;4.90;99.90
1179;DHT22;578;48.408;10.004;2023-01-09T16:43:44;5.00;99.90
1179;DHT22;578;48.408;10.004;2023-01-09T16:46:12;5.10;99.90
1179;DHT22;578;48.408;10.004;2023-01-09T16:48:39;5.10;99.90
1179;DHT22;578;48.408;10.004;2023-01-09T16:51:09;5.10;99.90
1179;DHT22;578;48.408;10.004;2023-01-09T16:53:38;5.20;99.90
1179;DHT22;578;48.408;10.004;2023-01-09T16:56:11;5.10;99.90
1179;DHT22;578;48.408;10.004;2023-01-09T16:58:39;5.10;99.90